TimeEDT,TemperatureF,Dew PointF,Humidity,Sea Level PressureIn,VisibilityMPH,Wind Direction,Wind SpeedMPH,Gust SpeedMPH,PrecipitationIn,Events,Conditions,WindDirDegrees,DateUTC
12:00 AM,42.1,32.0,67,29.80,10.0,WNW,13.8,18.4,N/A,,Clear,300,2012-11-03 04:00:00
1:00 AM,41.0,30.9,67,29.81,10.0,WNW,8.1,-,N/A,,Clear,290,2012-11-03 05:00:00
2:00 AM,41.0,30.9,67,29.80,10.0,WNW,11.5,-,N/A,,Clear,290,2012-11-03 06:00:00
3:00 AM,39.9,30.9,70,29.81,10.0,West,6.9,-,N/A,,Clear,280,2012-11-03 07:00:00
4:00 AM,42.1,32.0,67,29.80,10.0,WNW,10.4,-,N/A,,Overcast,290,2012-11-03 08:00:00
5:00 AM,42.1,30.9,65,29.81,10.0,WNW,12.7,20.7,N/A,,Overcast,290,2012-11-03 09:00:00
6:00 AM,42.1,30.9,65,29.83,10.0,WNW,10.4,-,N/A,,Overcast,290,2012-11-03 10:00:00
7:00 AM,42.1,30.0,62,29.84,10.0,WNW,9.2,-,N/A,,Overcast,290,2012-11-03 11:00:00
7:03 AM,-9999,-9999,N/A,-9999,-9999.0,North,-9999.0,-,N/A,,Unknown,0,2012-11-03 11:03:00
8:00 AM,42.1,28.9,60,29.86,10.0,WNW,13.8,-,N/A,,Partly Cloudy,290,2012-11-03 12:00:00
9:00 AM,45.0,28.9,53,29.88,10.0,WNW,10.4,21.9,N/A,,Partly Cloudy,290,2012-11-03 13:00:00
10:00 AM,46.9,28.9,50,29.88,10.0,WNW,13.8,23.0,N/A,,Partly Cloudy,300,2012-11-03 14:00:00
12:00 PM,48.0,28.9,48,29.87,10.0,NW,13.8,27.6,N/A,,Mostly Cloudy,310,2012-11-03 16:00:00
1:00 PM,48.9,28.9,46,29.86,10.0,WNW,15.0,31.1,N/A,,Overcast,300,2012-11-03 17:00:00
2:00 PM,48.9,28.9,46,29.86,10.0,NW,13.8,23.0,N/A,,Overcast,320,2012-11-03 18:00:00
3:00 PM,48.9,28.9,46,29.86,10.0,WNW,18.4,25.3,N/A,,Overcast,300,2012-11-03 19:00:00
4:00 PM,48.9,28.0,44,29.88,10.0,NW,12.7,25.3,N/A,,Overcast,310,2012-11-03 20:00:00
5:00 PM,48.0,28.9,48,29.89,10.0,WNW,16.1,23.0,N/A,,Overcast,300,2012-11-03 21:00:00
6:22 PM,-9999,-9999,N/A,-9999,-9999.0,North,-9999.0,-,N/A,,Unknown,0,2012-11-03 22:22:00
7:00 PM,46.9,28.0,48,29.92,10.0,NW,9.2,16.1,N/A,,Overcast,310,2012-11-03 23:00:00
8:00 PM,46.0,28.0,50,29.94,10.0,Variable,5.8,-,N/A,,Overcast,0,2012-11-04 00:00:00
9:00 PM,46.0,28.0,50,29.94,10.0,NNW,10.4,18.4,N/A,,Overcast,330,2012-11-04 01:00:00
10:00 PM,45.0,28.0,52,29.96,10.0,NW,10.4,17.3,N/A,,Overcast,310,2012-11-04 02:00:00
11:00 PM,43.0,27.0,53,29.97,10.0,NW,6.9,19.6,N/A,,Clear,320,2012-11-04 03:00:00